createdAt,value
2017-09-12T00:00:05.762Z,0
2017-09-12T00:01:05.749Z,0
2017-09-12T00:02:06.057Z,0
2017-09-12T00:03:06.061Z,0
2017-09-12T00:04:05.396Z,0
2017-09-12T00:05:05.430Z,0
2017-09-12T00:06:05.372Z,0
2017-09-12T00:07:05.678Z,0
2017-09-12T00:08:05.336Z,0
2017-09-12T00:09:05.004Z,0
2017-09-12T00:10:05.636Z,0
2017-09-12T00:11:05.937Z,0
2017-09-12T00:12:05.292Z,0
2017-09-12T00:13:05.277Z,0
2017-09-12T00:14:05.259Z,0
2017-09-12T00:15:05.563Z,0
2017-09-12T00:16:05.225Z,0
2017-09-12T00:17:05.222Z,0
2017-09-12T00:18:05.202Z,0
2017-09-12T00:19:04.872Z,0
2017-09-12T00:20:05.501Z,0
2017-09-12T00:21:05.485Z,0
2017-09-12T00:22:05.472Z,0
2017-09-12T00:23:05.464Z,0
2017-09-12T00:24:04.799Z,0
2017-09-12T00:25:05.756Z,0
2017-09-12T00:26:05.420Z,0
2017-09-12T00:27:05.088Z,0
2017-09-12T00:28:05.068Z,0
2017-09-12T00:29:05.378Z,0
2017-09-12T00:30:05.367Z,0
2017-09-12T00:31:05.036Z,0
2017-09-12T00:32:05.027Z,0
2017-09-12T00:33:05.668Z,0
2017-09-12T00:34:05.307Z,0
2017-09-12T00:35:04.981Z,0
2017-09-12T00:36:04.969Z,0
2017-09-12T00:37:04.956Z,0
2017-09-12T00:38:05.268Z,0
2017-09-12T00:39:04.926Z,0
2017-09-12T00:40:05.558Z,0
2017-09-12T00:41:05.220Z,0
2017-09-12T00:42:05.205Z,0
2017-09-12T00:43:04.549Z,0
2017-09-12T00:44:05.185Z,0
2017-09-12T00:45:05.250Z,0
2017-09-12T00:46:05.153Z,0
2017-09-12T00:47:05.140Z,0
2017-09-12T00:48:04.488Z,0
2017-09-12T00:49:05.114Z,0
2017-09-12T00:50:05.107Z,0
2017-09-12T00:51:05.085Z,0
2017-09-12T00:52:05.077Z,0
2017-09-12T00:53:05.068Z,0
2017-09-12T00:54:05.050Z,0
2017-09-12T00:55:05.042Z,0
2017-09-12T00:56:05.025Z,0
2017-09-12T00:57:04.686Z,0
2017-09-12T00:58:04.697Z,0
2017-09-12T00:59:04.989Z,0
2017-09-12T01:00:05.342Z,0
2017-09-12T01:01:04.638Z,0
2017-09-12T01:02:04.631Z,0
2017-09-12T01:03:04.292Z,0
2017-09-12T01:04:04.914Z,0
2017-09-12T01:05:04.582Z,0
2017-09-12T01:06:04.245Z,0
2017-09-12T01:07:04.553Z,0
2017-09-12T01:08:04.540Z,0
2017-09-12T01:09:04.846Z,0
2017-09-12T01:10:04.519Z,0
2017-09-12T01:11:04.827Z,0
2017-09-12T01:12:04.809Z,0
2017-09-12T01:13:04.475Z,0
2017-09-12T01:14:05.111Z,0
2017-09-12T01:15:04.768Z,0
2017-09-12T01:16:04.439Z,0
2017-09-12T01:17:04.749Z,0
2017-09-12T01:18:04.736Z,0
2017-09-12T01:19:04.718Z,0
2017-09-12T01:20:04.767Z,0
2017-09-12T01:21:04.686Z,0
2017-09-12T01:22:04.681Z,0
2017-09-12T01:23:04.996Z,0
2017-09-12T01:24:04.339Z,0
2017-09-12T01:25:04.701Z,0
2017-09-12T01:26:04.947Z,0
2017-09-12T01:27:04.620Z,0
2017-09-12T01:28:04.596Z,0
2017-09-12T01:29:04.917Z,0
2017-09-12T01:30:04.894Z,0
2017-09-12T01:31:04.239Z,0
2017-09-12T01:32:04.230Z,0
2017-09-12T01:33:04.210Z,0
2017-09-12T01:34:03.890Z,0
2017-09-12T01:35:04.183Z,0
2017-09-12T01:36:04.498Z,0
2017-09-12T01:37:04.161Z,0
2017-09-12T01:38:04.469Z,0
2017-09-12T01:39:04.460Z,0
2017-09-12T01:40:04.118Z,0
2017-09-12T01:41:04.112Z,0
2017-09-12T01:42:03.789Z,0
2017-09-12T01:43:03.751Z,0
2017-09-12T01:44:04.393Z,0
2017-09-12T01:45:04.377Z,0
2017-09-12T01:46:04.368Z,0
2017-09-12T01:47:04.026Z,0
2017-09-12T01:48:04.012Z,0
2017-09-12T01:49:04.326Z,0
2017-09-12T01:50:04.636Z,0
2017-09-12T01:51:03.653Z,0
2017-09-12T01:52:03.960Z,0
2017-09-12T01:53:04.267Z,0
2017-09-12T01:54:03.932Z,0
2017-09-12T01:55:04.242Z,0
2017-09-12T01:56:03.907Z,0
2017-09-12T01:57:03.894Z,0
2017-09-12T01:58:03.561Z,0
2017-09-12T01:59:04.195Z,0
2017-09-12T02:00:03.855Z,0
2017-09-12T02:01:03.888Z,0
2017-09-12T02:02:04.490Z,0
2017-09-12T02:03:03.814Z,0
2017-09-12T02:04:04.123Z,0
2017-09-12T02:05:04.123Z,0
2017-09-12T02:06:03.774Z,0
2017-09-12T02:07:04.085Z,0
2017-09-12T02:08:04.061Z,0
2017-09-12T02:09:03.739Z,0
2017-09-12T02:10:04.365Z,0
2017-09-12T02:11:04.083Z,0
2017-09-12T02:12:04.384Z,0
2017-09-12T02:13:04.020Z,0
2017-09-12T02:14:03.665Z,0
2017-09-12T02:15:03.658Z,0
2017-09-12T02:16:03.642Z,0
2017-09-12T02:17:03.631Z,0
2017-09-12T02:18:03.936Z,0
2017-09-12T02:19:04.245Z,0
2017-09-12T02:20:03.587Z,0
2017-09-12T02:21:03.904Z,0
2017-09-12T02:22:03.561Z,0
2017-09-12T02:23:03.888Z,0
2017-09-12T02:24:04.241Z,0
2017-09-12T02:25:03.200Z,0
2017-09-12T02:26:03.181Z,0
2017-09-12T02:27:04.134Z,0
2017-09-12T02:28:03.827Z,0
2017-09-12T02:29:03.466Z,0
2017-09-12T02:30:03.131Z,0
2017-09-12T02:31:03.461Z,0
2017-09-12T02:32:03.425Z,0
2017-09-12T02:33:03.095Z,0
2017-09-12T02:34:03.421Z,0
2017-09-12T02:35:03.711Z,0
2017-09-12T02:36:03.695Z,0
2017-09-12T02:37:03.039Z,0
2017-09-12T02:38:03.357Z,0
2017-09-12T02:39:03.670Z,0
2017-09-12T02:40:03.316Z,0
2017-09-12T02:41:03.321Z,0
2017-09-12T02:42:03.945Z,0
2017-09-12T02:43:03.630Z,0
2017-09-12T02:44:02.951Z,0
2017-09-12T02:45:03.585Z,0
2017-09-12T02:46:03.572Z,0
2017-09-12T02:47:03.595Z,0
2017-09-12T02:48:03.553Z,0
2017-09-12T02:49:03.203Z,0
2017-09-12T02:50:03.545Z,0
2017-09-12T02:51:02.855Z,0
2017-09-12T02:52:03.172Z,0
2017-09-12T02:53:03.148Z,0
2017-09-12T02:54:03.469Z,0
2017-09-12T02:55:03.772Z,0
2017-09-12T02:56:03.431Z,0
2017-09-12T02:57:03.416Z,0
2017-09-12T02:58:03.401Z,0
2017-09-12T02:59:02.746Z,0
2017-09-12T03:00:03.375Z,0
2017-09-12T03:01:03.050Z,0
2017-09-12T03:02:03.661Z,0
2017-09-12T03:03:03.652Z,0
2017-09-12T03:04:03.320Z,0
2017-09-12T03:05:02.983Z,0
2017-09-12T03:06:03.302Z,0
2017-09-12T03:07:02.961Z,0
2017-09-12T03:08:02.943Z,0
2017-09-12T03:09:02.929Z,0
2017-09-12T03:10:02.929Z,0
2017-09-12T03:11:03.224Z,0
2017-09-12T03:12:02.886Z,0
2017-09-12T03:13:03.202Z,0
2017-09-12T03:14:02.538Z,0
2017-09-12T03:15:03.189Z,0
2017-09-12T03:16:02.833Z,0
2017-09-12T03:17:03.145Z,0
2017-09-12T03:18:02.808Z,0
2017-09-12T03:19:03.121Z,0
2017-09-12T03:20:02.780Z,0
2017-09-12T03:21:03.089Z,0
2017-09-12T03:22:02.755Z,0
2017-09-12T03:23:03.061Z,0
2017-09-12T03:24:03.044Z,0
2017-09-12T03:25:03.036Z,0
2017-09-12T03:26:02.703Z,0
2017-09-12T03:27:03.009Z,0
2017-09-12T03:28:03.322Z,0
2017-09-12T03:29:02.681Z,0
2017-09-12T03:30:02.977Z,0
2017-09-12T03:31:02.973Z,0
2017-09-12T03:32:02.636Z,0
2017-09-12T03:33:02.929Z,0
2017-09-12T03:34:02.924Z,0
2017-09-12T03:35:02.900Z,0
2017-09-12T03:36:02.908Z,0
2017-09-12T03:37:02.552Z,0
2017-09-12T03:38:02.414Z,0
2017-09-12T03:39:02.865Z,0
2017-09-12T03:40:03.152Z,0
2017-09-12T03:41:02.493Z,0
2017-09-12T03:42:02.157Z,0
2017-09-12T03:43:02.831Z,0
2017-09-12T03:44:02.780Z,0
2017-09-12T03:45:02.440Z,0
2017-09-12T03:46:02.428Z,0
2017-09-12T03:47:02.743Z,0
2017-09-12T03:48:02.403Z,0
2017-09-12T03:49:03.032Z,0
2017-09-12T03:50:03.016Z,0
2017-09-12T03:51:03.010Z,0
2017-09-12T03:52:02.990Z,0
2017-09-12T03:53:02.714Z,0
2017-09-12T03:54:02.960Z,0
2017-09-12T03:55:01.984Z,0
2017-09-12T03:56:02.822Z,0
2017-09-12T03:57:01.963Z,0
2017-09-12T03:58:02.590Z,0
2017-09-12T03:59:02.573Z,0
2017-09-12T04:00:02.240Z,0
2017-09-12T04:01:02.250Z,0
2017-09-12T04:02:02.536Z,0
2017-09-12T04:03:02.248Z,0
2017-09-12T04:04:01.857Z,0
2017-09-12T04:05:02.212Z,0
2017-09-12T04:06:02.156Z,0
2017-09-12T04:07:02.993Z,0
2017-09-12T04:08:02.124Z,0
2017-09-12T04:09:01.817Z,0
2017-09-12T04:10:02.434Z,0
2017-09-12T04:11:02.745Z,0
2017-09-12T04:12:02.403Z,0
2017-09-12T04:13:02.393Z,0
2017-09-12T04:14:02.725Z,0
2017-09-12T04:15:01.712Z,0
2017-09-12T04:16:02.019Z,0
2017-09-12T04:17:02.324Z,0
2017-09-12T04:18:01.988Z,0
2017-09-12T04:19:02.294Z,0
2017-09-12T04:20:02.615Z,0
2017-09-12T04:21:02.290Z,0
2017-09-12T04:22:02.264Z,0
2017-09-12T04:23:02.571Z,0
2017-09-12T04:24:01.912Z,0
2017-09-12T04:25:02.223Z,0
2017-09-12T04:26:01.877Z,0
2017-09-12T04:27:01.889Z,0
2017-09-12T04:28:02.170Z,0
2017-09-12T04:29:02.175Z,0
2017-09-12T04:30:02.166Z,0
2017-09-12T04:31:01.489Z,0
2017-09-12T04:32:01.788Z,0
2017-09-12T04:33:01.783Z,0
2017-09-12T04:34:02.097Z,0
2017-09-12T04:35:02.100Z,0
2017-09-12T04:36:01.744Z,4
2017-09-12T04:37:02.042Z,0
2017-09-12T04:38:01.705Z,4
2017-09-12T04:39:02.007Z,4
2017-09-12T04:40:01.677Z,0
2017-09-12T04:41:02.013Z,4
2017-09-12T04:42:02.295Z,4
2017-09-12T04:43:01.629Z,8
2017-09-12T04:44:01.617Z,0
2017-09-12T04:45:01.927Z,4
2017-09-12T04:46:01.909Z,8
2017-09-12T04:47:01.575Z,4
2017-09-12T04:48:02.208Z,8
2017-09-12T04:49:01.871Z,8
2017-09-12T04:50:01.849Z,12
2017-09-12T04:51:02.160Z,16
2017-09-12T04:52:01.839Z,16
2017-09-12T04:53:01.535Z,24
2017-09-12T04:54:01.490Z,32
2017-09-12T04:55:01.786Z,32
2017-09-12T04:56:01.447Z,40
2017-09-12T04:57:02.107Z,44
2017-09-12T04:58:02.062Z,48
2017-09-12T04:59:01.455Z,60
2017-09-12T05:00:01.406Z,76
2017-09-12T05:01:02.022Z,76
2017-09-12T05:02:01.374Z,88
2017-09-12T05:03:01.683Z,104
2017-09-12T05:04:01.662Z,116
2017-09-12T05:05:01.321Z,124
2017-09-12T05:06:01.945Z,128
2017-09-12T05:07:01.605Z,136
2017-09-12T05:08:01.589Z,128
2017-09-12T05:09:01.582Z,112
2017-09-12T05:10:01.561Z,120
2017-09-12T05:11:01.232Z,132
2017-09-12T05:12:01.533Z,136
2017-09-12T05:13:01.197Z,140
2017-09-12T05:14:01.503Z,144
2017-09-12T05:15:01.498Z,148
2017-09-12T05:16:01.484Z,184
2017-09-12T05:17:01.462Z,208
2017-09-12T05:18:01.449Z,244
2017-09-12T05:19:01.116Z,304
2017-09-12T05:20:01.420Z,336
2017-09-12T05:21:01.407Z,332
2017-09-12T05:22:01.714Z,324
2017-09-12T05:23:01.372Z,296
2017-09-12T05:24:01.050Z,208
2017-09-12T05:25:01.348Z,224
2017-09-12T05:26:01.013Z,316
2017-09-12T05:27:01.314Z,364
2017-09-12T05:28:01.632Z,412
2017-09-12T05:29:00.640Z,480
2017-09-12T05:30:01.591Z,512
2017-09-12T05:31:00.944Z,504
2017-09-12T05:32:01.236Z,480
2017-09-12T05:33:01.544Z,436
2017-09-12T05:34:01.232Z,404
2017-09-12T05:35:01.540Z,388
2017-09-12T05:36:00.875Z,384
2017-09-12T05:37:01.181Z,396
2017-09-12T05:38:01.043Z,444
2017-09-12T05:39:01.486Z,520
2017-09-12T05:40:01.462Z,584
2017-09-12T05:41:00.796Z,616
2017-09-12T05:42:01.100Z,636
2017-09-12T05:43:00.783Z,640
2017-09-12T05:44:01.093Z,684
2017-09-12T05:45:00.734Z,696
2017-09-12T05:46:01.050Z,712
2017-09-12T05:47:01.016Z,776
2017-09-12T05:48:00.692Z,816
2017-09-12T05:49:01.019Z,828
2017-09-12T05:50:01.300Z,832
2017-09-12T05:51:00.967Z,864
2017-09-12T05:52:00.638Z,956
2017-09-12T05:53:01.261Z,940
2017-09-12T05:54:00.929Z,940
2017-09-12T05:55:00.277Z,936
2017-09-12T05:56:00.892Z,1048
2017-09-12T05:57:00.244Z,1112
2017-09-12T05:58:00.865Z,1152
2017-09-12T05:59:00.538Z,1240
2017-09-12T06:00:00.529Z,1260
2017-09-12T06:01:00.825Z,1460
2017-09-12T06:02:00.812Z,1576
2017-09-12T06:03:00.475Z,1680
2017-09-12T06:04:00.135Z,1668
2017-09-12T06:05:00.761Z,1684
2017-09-12T06:06:00.746Z,1872
2017-09-12T06:07:01.057Z,1916
2017-09-12T06:08:00.401Z,2076
2017-09-12T06:09:00.065Z,2312
2017-09-12T06:10:01.007Z,2404
2017-09-12T06:11:01.002Z,2476
2017-09-12T06:12:00.664Z,2788
2017-09-12T06:13:00.328Z,2968
2017-09-12T06:14:00.958Z,3040
2017-09-12T06:15:00.939Z,3448
2017-09-12T06:16:00.608Z,3508
2017-09-12T06:17:00.629Z,3380
2017-09-12T06:18:00.252Z,4176
2017-09-12T06:19:00.881Z,3732
2017-09-12T06:20:00.547Z,3836
2017-09-12T06:21:00.536Z,4028
2017-09-12T06:22:00.524Z,3396
2017-09-12T06:23:00.193Z,2808
2017-09-12T06:24:00.494Z,2484
2017-09-12T06:25:00.486Z,1824
2017-09-12T06:26:00.470Z,1704
2017-09-12T06:27:00.778Z,1728
2017-09-12T06:28:00.442Z,1596
2017-09-12T06:29:00.455Z,1872
2017-09-12T06:30:00.402Z,1780
2017-09-12T06:30:59.764Z,1584
2017-09-12T06:32:00.392Z,1868
2017-09-12T06:33:00.365Z,1708
2017-09-12T06:34:00.363Z,1724
2017-09-12T06:35:00.658Z,1732
2017-09-12T06:36:00.673Z,1056
2017-09-12T06:36:59.993Z,912
2017-09-12T06:38:00.317Z,968
2017-09-12T06:38:59.989Z,1032
2017-09-12T06:39:59.630Z,960
2017-09-12T06:41:00.249Z,920
2017-09-12T06:42:00.242Z,724
2017-09-12T06:42:59.907Z,828
2017-09-12T06:43:59.896Z,860
2017-09-12T06:45:00.199Z,1084
2017-09-12T06:45:59.542Z,944
2017-09-12T06:46:59.529Z,916
2017-09-12T06:47:59.517Z,1168
2017-09-12T06:48:59.837Z,1200
2017-09-12T06:49:59.809Z,840
2017-09-12T06:51:00.138Z,888
2017-09-12T06:52:00.100Z,1052
2017-09-12T06:52:59.772Z,1128
2017-09-12T06:54:00.085Z,1336
2017-09-12T06:55:00.062Z,1948
2017-09-12T06:55:59.407Z,2460
2017-09-12T06:56:59.712Z,3540
2017-09-12T06:58:00.347Z,3728
2017-09-12T06:59:00.005Z,2692
2017-09-12T06:59:59.345Z,2524
2017-09-12T07:00:59.999Z,3576
2017-09-12T07:01:59.965Z,4096
2017-09-12T07:03:00.277Z,4276
2017-09-12T07:04:00.256Z,3608
2017-09-12T07:04:59.599Z,5496
2017-09-12T07:05:59.927Z,5536
2017-09-12T07:06:59.890Z,5756
2017-09-12T07:08:00.214Z,6632
2017-09-12T07:08:59.545Z,5708
2017-09-12T07:09:59.532Z,5696
2017-09-12T07:10:59.840Z,4756
2017-09-12T07:11:59.506Z,4220
2017-09-12T07:12:59.817Z,4852
2017-09-12T07:13:59.831Z,5572
2017-09-12T07:15:00.120Z,6700
2017-09-12T07:15:59.502Z,8300
2017-09-12T07:16:59.437Z,6980
2017-09-12T07:17:59.108Z,4744
2017-09-12T07:18:59.734Z,3560
2017-09-12T07:19:59.735Z,4464
2017-09-12T07:20:59.704Z,7004
2017-09-12T07:21:59.378Z,7396
2017-09-12T07:23:00.013Z,5724
2017-09-12T07:23:59.346Z,4784
2017-09-12T07:24:59.984Z,5100
2017-09-12T07:25:59.942Z,5844
2017-09-12T07:26:59.629Z,6300
2017-09-12T07:27:59.295Z,5340
2017-09-12T07:28:59.280Z,5404
2017-09-12T07:29:59.596Z,5452
2017-09-12T07:30:59.917Z,4800
2017-09-12T07:31:59.560Z,5192
2017-09-12T07:32:59.232Z,3852
2017-09-12T07:33:59.224Z,3924
2017-09-12T07:34:59.533Z,3644
2017-09-12T07:35:59.517Z,4372
2017-09-12T07:36:59.503Z,4732
2017-09-12T07:37:59.368Z,4812
2017-09-12T07:38:59.799Z,4828
2017-09-12T07:39:59.456Z,3984
2017-09-12T07:40:59.763Z,3772
2017-09-12T07:41:59.436Z,2640
2017-09-12T07:42:59.746Z,3236
2017-09-12T07:43:59.086Z,3868
2017-09-12T07:44:58.754Z,6368
2017-09-12T07:45:59.059Z,5764
2017-09-12T07:46:59.693Z,4360
2017-09-12T07:47:59.032Z,4444
2017-09-12T07:48:59.373Z,7156
2017-09-12T07:49:59.645Z,7632
2017-09-12T07:50:59.319Z,6168
2017-09-12T07:51:59.661Z,5080
2017-09-12T07:52:58.977Z,9772
2017-09-12T07:53:59.286Z,4964
2017-09-12T07:54:59.262Z,4740
2017-09-12T07:55:58.613Z,3780
2017-09-12T07:56:59.246Z,4964
2017-09-12T07:57:58.913Z,5240
2017-09-12T07:58:58.895Z,4572
2017-09-12T07:59:59.214Z,3732
2017-09-12T08:00:58.548Z,3900
2017-09-12T08:01:58.856Z,4784
2017-09-12T08:02:58.846Z,7264
2017-09-12T08:03:59.504Z,5864
2017-09-12T08:04:58.501Z,4516
2017-09-12T08:05:59.126Z,4588
2017-09-12T08:06:58.792Z,5484
2017-09-12T08:07:58.777Z,7548
2017-09-12T08:08:59.098Z,6040
2017-09-12T08:09:58.757Z,13716
2017-09-12T08:10:58.752Z,7812
2017-09-12T08:11:59.371Z,7456
2017-09-12T08:12:59.043Z,18848
2017-09-12T08:13:58.703Z,6808
2017-09-12T08:14:58.694Z,6000
2017-09-12T08:15:58.355Z,8200
2017-09-12T08:16:58.669Z,8648
2017-09-12T08:17:58.981Z,8148
2017-09-12T08:18:59.287Z,18496
2017-09-12T08:19:59.274Z,8536
2017-09-12T08:20:58.621Z,6116
2017-09-12T08:21:58.935Z,8492
2017-09-12T08:22:58.918Z,7912
2017-09-12T08:23:58.910Z,8300
2017-09-12T08:24:58.891Z,7300
2017-09-12T08:25:58.879Z,8524
2017-09-12T08:26:58.872Z,6468
2017-09-12T08:27:58.856Z,7752
2017-09-12T08:28:58.847Z,10076
2017-09-12T08:29:59.159Z,11220
2017-09-12T08:30:58.815Z,10896
2017-09-12T08:31:58.489Z,8784
2017-09-12T08:32:59.116Z,5020
2017-09-12T08:33:59.108Z,4108
2017-09-12T08:34:58.134Z,4904
2017-09-12T08:35:59.087Z,7228
2017-09-12T08:36:58.754Z,8212
2017-09-12T08:37:58.746Z,8608
2017-09-12T08:38:58.083Z,9392
2017-09-12T08:39:58.397Z,8888
2017-09-12T08:40:58.700Z,8352
2017-09-12T08:41:58.371Z,11184
2017-09-12T08:42:58.728Z,11032
2017-09-12T08:43:58.350Z,8404
2017-09-12T08:44:58.673Z,6836
2017-09-12T08:45:58.332Z,8156
2017-09-12T08:46:58.326Z,8620
2017-09-12T08:47:58.628Z,11780
2017-09-12T08:48:58.607Z,12900
2017-09-12T08:49:57.963Z,11592
2017-09-12T08:50:58.589Z,9692
2017-09-12T08:51:58.574Z,8232
2017-09-12T08:52:58.251Z,7696
2017-09-12T08:53:58.883Z,9232
2017-09-12T08:54:58.222Z,10892
2017-09-12T08:55:58.533Z,13228
2017-09-12T08:56:58.200Z,10328
2017-09-12T08:57:58.190Z,6176
2017-09-12T08:58:58.173Z,5776
2017-09-12T08:59:57.844Z,8220
2017-09-12T09:00:58.155Z,12072
2017-09-12T09:01:58.188Z,12160
2017-09-12T09:02:58.783Z,12400
2017-09-12T09:03:57.798Z,8732
2017-09-12T09:04:58.427Z,6992
2017-09-12T09:05:58.095Z,5300
2017-09-12T09:06:57.775Z,4584
2017-09-12T09:07:57.758Z,4180
2017-09-12T09:08:58.389Z,2888
2017-09-12T09:09:58.379Z,2264
2017-09-12T09:10:58.368Z,3088
2017-09-12T09:11:58.668Z,4100
2017-09-12T09:12:58.389Z,4976
2017-09-12T09:13:58.006Z,5120
2017-09-12T09:14:58.319Z,5652
2017-09-12T09:15:58.305Z,8444
2017-09-12T09:16:58.293Z,8568
2017-09-12T09:17:58.280Z,6336
2017-09-12T09:18:58.263Z,6708
2017-09-12T09:19:58.258Z,10092
2017-09-12T09:20:58.243Z,8076
2017-09-12T09:21:58.552Z,10176
2017-09-12T09:22:57.904Z,8848
2017-09-12T09:23:58.542Z,8540
2017-09-12T09:24:57.900Z,10972
2017-09-12T09:25:57.870Z,9768
2017-09-12T09:26:58.181Z,10284
2017-09-12T09:27:58.538Z,7116
2017-09-12T09:28:57.836Z,4204
2017-09-12T09:29:58.155Z,3740
2017-09-12T09:30:58.127Z,3712
2017-09-12T09:31:57.791Z,3916
2017-09-12T09:32:58.115Z,4236
2017-09-12T09:33:57.778Z,4904
2017-09-12T09:34:58.099Z,7056
2017-09-12T09:35:57.748Z,6880
2017-09-12T09:36:58.387Z,9076
2017-09-12T09:37:57.931Z,4936
2017-09-12T09:38:58.042Z,5688
2017-09-12T09:39:58.028Z,6336
2017-09-12T09:40:58.062Z,8400
2017-09-12T09:41:57.363Z,7928
2017-09-12T09:42:57.994Z,5420
2017-09-12T09:43:57.667Z,4648
2017-09-12T09:44:57.975Z,5912
2017-09-12T09:45:58.279Z,9424
2017-09-12T09:46:57.704Z,10908
2017-09-12T09:47:57.614Z,11000
2017-09-12T09:48:57.653Z,7476
2017-09-12T09:49:58.241Z,6736
2017-09-12T09:50:57.595Z,6784
2017-09-12T09:51:57.575Z,7064
2017-09-12T09:52:57.553Z,10312
2017-09-12T09:53:57.545Z,13116
2017-09-12T09:54:57.874Z,12320
2017-09-12T09:55:57.517Z,11536
2017-09-12T09:56:57.837Z,13780
2017-09-12T09:57:57.502Z,10680
2017-09-12T09:58:57.490Z,8244
2017-09-12T09:59:57.809Z,7804
2017-09-12T10:00:58.155Z,7164
2017-09-12T10:01:57.457Z,8164
2017-09-12T10:02:57.450Z,9824
2017-09-12T10:03:57.760Z,9144
2017-09-12T10:04:57.763Z,9252
2017-09-12T10:05:57.740Z,8204
2017-09-12T10:06:57.725Z,8724
2017-09-12T10:07:58.040Z,11708
2017-09-12T10:08:57.430Z,12064
2017-09-12T10:09:57.367Z,10188
2017-09-12T10:10:57.357Z,9244
2017-09-12T10:11:57.995Z,7612
2017-09-12T10:12:57.022Z,8728
2017-09-12T10:13:57.659Z,9532
2017-09-12T10:14:57.647Z,9192
2017-09-12T10:15:57.307Z,6180
2017-09-12T10:16:57.299Z,5572
2017-09-12T10:17:57.618Z,5740
2017-09-12T10:18:57.597Z,6060
2017-09-12T10:19:57.584Z,4500
2017-09-12T10:20:57.594Z,3416
2017-09-12T10:21:57.881Z,4772
2017-09-12T10:22:57.906Z,8100
2017-09-12T10:23:58.065Z,12332
2017-09-12T10:24:57.208Z,13268
2017-09-12T10:25:57.518Z,11592
2017-09-12T10:26:56.866Z,10892
2017-09-12T10:27:57.819Z,20000
2017-09-12T10:28:57.490Z,11148
2017-09-12T10:29:56.854Z,9780
2017-09-12T10:30:57.459Z,11488
2017-09-12T10:31:57.452Z,12492
2017-09-12T10:32:57.118Z,10804
2017-09-12T10:33:57.428Z,11636
2017-09-12T10:34:57.092Z,11132
2017-09-12T10:35:56.760Z,10736
2017-09-12T10:36:57.397Z,14548
2017-09-12T10:37:57.388Z,10024
2017-09-12T10:38:57.374Z,9600
2017-09-12T10:39:57.359Z,14816
2017-09-12T10:40:57.037Z,10252
2017-09-12T10:41:57.341Z,33728
2017-09-12T10:42:57.334Z,13056
2017-09-12T10:43:57.330Z,23968
2017-09-12T10:44:57.310Z,17440
2017-09-12T10:45:57.305Z,12300
2017-09-12T10:46:57.295Z,11164
2017-09-12T10:47:57.603Z,10516
2017-09-12T10:48:56.973Z,32576
2017-09-12T10:49:57.595Z,38080
2017-09-12T10:50:56.940Z,56480
2017-09-12T10:51:56.916Z,8028
2017-09-12T10:52:57.561Z,9580
2017-09-12T10:53:57.561Z,15520
2017-09-12T10:54:57.223Z,14136
2017-09-12T10:55:56.887Z,10632
2017-09-12T10:56:56.879Z,13020
2017-09-12T10:57:57.186Z,27872
2017-09-12T10:58:57.234Z,14252
2017-09-12T10:59:57.491Z,38176
2017-09-12T11:01:24.004Z,27456
2017-09-12T11:01:56.864Z,39264
2017-09-12T11:02:56.507Z,12108
2017-09-12T11:03:57.462Z,29920
2017-09-12T11:04:56.802Z,57632
2017-09-12T11:05:57.444Z,22144
2017-09-12T11:06:57.441Z,38464
2017-09-12T11:07:56.781Z,28896
2017-09-12T11:08:57.102Z,11508
2017-09-12T11:09:56.763Z,9336
2017-09-12T11:10:56.762Z,8980
2017-09-12T11:11:56.428Z,81952
2017-09-12T11:12:56.746Z,30336
2017-09-12T11:13:57.383Z,66400
2017-09-12T11:14:57.057Z,65888
2017-09-12T11:15:57.366Z,7612
2017-09-12T11:16:57.043Z,69440
2017-09-12T11:17:56.720Z,76352
2017-09-12T11:18:56.712Z,111424
2017-09-12T11:19:56.390Z,13300
2017-09-12T11:20:57.021Z,14416
2017-09-12T11:21:56.693Z,48352
2017-09-12T11:22:56.711Z,49216
2017-09-12T11:23:56.685Z,15944
2017-09-12T11:24:56.682Z,18816
2017-09-12T11:25:56.997Z,16332
2017-09-12T11:26:56.994Z,70688
2017-09-12T11:27:56.671Z,17632
2017-09-12T11:28:56.987Z,11824
2017-09-12T11:29:57.304Z,10492
2017-09-12T11:30:57.295Z,16480
2017-09-12T11:31:56.974Z,8336
2017-09-12T11:32:57.298Z,7560
2017-09-12T11:33:56.635Z,6924
2017-09-12T11:34:57.281Z,6468
2017-09-12T11:35:56.945Z,6320
2017-09-12T11:36:57.261Z,5848
2017-09-12T11:37:57.138Z,7184
2017-09-12T11:38:56.283Z,12548
2017-09-12T11:39:56.600Z,23648
2017-09-12T11:40:56.918Z,22944
2017-09-12T11:41:56.585Z,20000
2017-09-12T11:42:56.570Z,94336
2017-09-12T11:43:57.213Z,27712
2017-09-12T11:44:56.582Z,61632
2017-09-12T11:45:56.549Z,93152
2017-09-12T11:46:56.862Z,95104
2017-09-12T11:47:56.532Z,96256
2017-09-12T11:48:56.525Z,14800
2017-09-12T11:49:56.850Z,8748
2017-09-12T11:50:56.841Z,7244
2017-09-12T11:51:56.827Z,5752
2017-09-12T11:52:57.147Z,5256
2017-09-12T11:53:56.821Z,5800
2017-09-12T11:54:56.485Z,6644
2017-09-12T11:55:56.813Z,7348
2017-09-12T11:56:56.798Z,6872
2017-09-12T11:57:56.800Z,4968
2017-09-12T11:58:57.110Z,4012
2017-09-12T11:59:56.780Z,5100
2017-09-12T12:00:56.789Z,6768
2017-09-12T12:01:57.092Z,7944
2017-09-12T12:02:56.751Z,9736
2017-09-12T12:03:56.755Z,10348
2017-09-12T12:04:56.754Z,12292
2017-09-12T12:05:56.737Z,93248
2017-09-12T12:06:56.729Z,97952
2017-09-12T12:07:56.730Z,96160
2017-09-12T12:08:56.716Z,97440
2017-09-12T12:09:57.025Z,99808
2017-09-12T12:10:56.694Z,100768
2017-09-12T12:11:56.708Z,27520
2017-09-12T12:12:56.702Z,14032
2017-09-12T12:13:56.998Z,8420
2017-09-12T12:14:56.039Z,9640
2017-09-12T12:15:56.990Z,8600
2017-09-12T12:16:56.342Z,7288
2017-09-12T12:17:56.981Z,6872
2017-09-12T12:18:56.334Z,7596
2017-09-12T12:19:56.320Z,5232
2017-09-12T12:20:56.320Z,4760
2017-09-12T12:21:56.313Z,5268
2017-09-12T12:22:56.310Z,89600
2017-09-12T12:23:55.980Z,87296
2017-09-12T12:24:56.294Z,84224
2017-09-12T12:25:56.626Z,82944
2017-09-12T12:26:55.976Z,83040
2017-09-12T12:27:56.923Z,82528
2017-09-12T12:28:56.590Z,80768
2017-09-12T12:29:56.266Z,81056
2017-09-12T12:30:56.908Z,81504
2017-09-12T12:31:55.934Z,82528
2017-09-12T12:32:56.892Z,87520
2017-09-12T12:33:56.571Z,90848
2017-09-12T12:34:56.884Z,72352
2017-09-12T12:35:55.917Z,46752
2017-09-12T12:36:56.252Z,23584
2017-09-12T12:37:56.245Z,26688
2017-09-12T12:38:56.553Z,19072
2017-09-12T12:39:55.915Z,76032
2017-09-12T12:40:56.236Z,76512
2017-09-12T12:41:56.231Z,13568
2017-09-12T12:42:56.551Z,93568
2017-09-12T12:43:56.876Z,94720
2017-09-12T12:44:56.556Z,95456
2017-09-12T12:45:56.875Z,87456
2017-09-12T12:46:56.551Z,94944
2017-09-12T12:47:56.222Z,94304
2017-09-12T12:48:56.220Z,76800
2017-09-12T12:49:56.542Z,18272
2017-09-12T12:50:56.541Z,12164
2017-09-12T12:51:56.855Z,17280
2017-09-12T12:52:55.906Z,18048
2017-09-12T12:53:56.552Z,15324
2017-09-12T12:54:56.220Z,11328
2017-09-12T12:55:56.212Z,10200
2017-09-12T12:56:56.523Z,9208
2017-09-12T12:57:56.531Z,9116
2017-09-12T12:58:56.200Z,6960
2017-09-12T12:59:56.517Z,5172
2017-09-12T13:00:56.509Z,4292
2017-09-12T13:01:56.833Z,4132
2017-09-12T13:02:56.508Z,4532
2017-09-12T13:03:56.501Z,4204
2017-09-12T13:04:56.174Z,4064
2017-09-12T13:05:56.815Z,4616
2017-09-12T13:06:56.489Z,7120
2017-09-12T13:07:56.166Z,43232
2017-09-12T13:08:56.474Z,16756
2017-09-12T13:09:55.830Z,9076
2017-09-12T13:10:56.143Z,8524
2017-09-12T13:11:56.459Z,13016
2017-09-12T13:12:56.453Z,17024
2017-09-12T13:13:56.452Z,75712
2017-09-12T13:14:56.771Z,24224
2017-09-12T13:15:56.119Z,73376
2017-09-12T13:16:56.432Z,72832
2017-09-12T13:17:56.433Z,77600
2017-09-12T13:18:55.778Z,79520
2017-09-12T13:19:56.727Z,77824
2017-09-12T13:20:56.733Z,79232
2017-09-12T13:21:56.084Z,77056
2017-09-12T13:22:56.077Z,73696
2017-09-12T13:23:55.749Z,74144
2017-09-12T13:24:56.714Z,48224
2017-09-12T13:25:56.075Z,15912
2017-09-12T13:26:56.078Z,19904
2017-09-12T13:27:56.729Z,11084
2017-09-12T13:28:56.377Z,8804
2017-09-12T13:29:56.691Z,8696
2017-09-12T13:30:56.048Z,7368
2017-09-12T13:31:56.396Z,5972
2017-09-12T13:32:56.364Z,5248
2017-09-12T13:33:56.033Z,6056
2017-09-12T13:34:56.355Z,18336
2017-09-12T13:35:56.351Z,7412
2017-09-12T13:36:56.029Z,44032
2017-09-12T13:37:56.426Z,18656
2017-09-12T13:38:56.325Z,11120
2017-09-12T13:39:56.655Z,7540
2017-09-12T13:40:56.640Z,7384
2017-09-12T13:41:56.325Z,7984
2017-09-12T13:42:55.995Z,7664
2017-09-12T13:43:56.653Z,9412